sensor_id;sensor_type;location;lat;lon;timestamp;pressure;altitude;pressure_sealevel;temperature;humidity
69184;BME280;56291;53.960;27.550;2023-09-18T02:02:38;99508.38;;;11.15;65.73
69184;BME280;56291;53.960;27.550;2023-09-18T02:05:04;99512.69;;;11.16;65.70
69184;BME280;56291;53.960;27.550;2023-09-18T02:07:30;99507.84;;;11.11;65.67
69184;BME280;56291;53.960;27.550;2023-09-18T02:09:57;99511.41;;;11.10;65.75
69184;BME280;56291;53.960;27.550;2023-09-18T02:12:23;99508.94;;;11.09;65.53
69184;BME280;56291;53.960;27.550;2023-09-18T02:14:49;99504.06;;;11.04;65.98
69184;BME280;56291;53.960;27.550;2023-09-18T02:17:16;99509.72;;;11.00;65.57
69184;BME280;56291;53.960;27.550;2023-09-18T02:19:42;99512.50;;;10.98;65.62
69184;BME280;56291;53.960;27.550;2023-09-18T02:22:09;99510.00;;;10.96;66.02
69184;BME280;56291;53.960;27.550;2023-09-18T02:24:35;99503.19;;;10.94;65.89
69184;BME280;56291;53.960;27.550;2023-09-18T02:27:04;99508.03;;;10.89;66.23
69184;BME280;56291;53.960;27.550;2023-09-18T02:29:31;99509.69;;;10.90;66.10
69184;BME280;56291;53.960;27.550;2023-09-18T02:31:57;99505.78;;;10.84;66.11
69184;BME280;56291;53.960;27.550;2023-09-18T02:34:23;99501.66;;;10.82;66.64
69184;BME280;56291;53.960;27.550;2023-09-18T02:36:49;99502.34;;;10.84;66.47
69184;BME280;56291;53.960;27.550;2023-09-18T02:39:15;99504.97;;;10.84;66.12
69184;BME280;56291;53.960;27.550;2023-09-18T02:41:41;99504.28;;;10.82;66.36
69184;BME280;56291;53.960;27.550;2023-09-18T02:44:08;99495.81;;;10.78;66.39
69184;BME280;56291;53.960;27.550;2023-09-18T02:46:34;99497.16;;;10.72;66.38
69184;BME280;56291;53.960;27.550;2023-09-18T02:49:00;99501.59;;;10.72;66.58
69184;BME280;56291;53.960;27.550;2023-09-18T02:51:26;99493.44;;;10.75;66.45
69184;BME280;56291;53.960;27.550;2023-09-18T02:53:52;99500.63;;;10.73;66.88
69184;BME280;56291;53.960;27.550;2023-09-18T02:56:18;99495.63;;;10.70;67.19
69184;BME280;56291;53.960;27.550;2023-09-18T02:58:45;99488.69;;;10.69;66.78
69184;BME280;56291;53.960;27.550;2023-09-18T03:01:11;99501.97;;;10.67;66.76
69184;BME280;56291;53.960;27.550;2023-09-18T03:03:37;99494.09;;;10.67;66.66
69184;BME280;56291;53.960;27.550;2023-09-18T03:06:04;99490.06;;;10.63;66.12
69184;BME280;56291;53.960;27.550;2023-09-18T03:08:31;99486.56;;;10.53;66.53
69184;BME280;56291;53.960;27.550;2023-09-18T03:10:57;99480.59;;;10.51;66.99
69184;BME280;56291;53.960;27.550;2023-09-18T03:13:25;99476.75;;;10.55;67.43
69184;BME280;56291;53.960;27.550;2023-09-18T03:15:52;99480.34;;;10.54;66.75
69184;BME280;56291;53.960;27.550;2023-09-18T03:18:18;99483.25;;;10.51;66.43
69184;BME280;56291;53.960;27.550;2023-09-18T03:20:44;99477.41;;;10.47;66.73
69184;BME280;56291;53.960;27.550;2023-09-18T03:23:11;99484.59;;;10.45;66.81
69184;BME280;56291;53.960;27.550;2023-09-18T03:25:37;99488.59;;;10.49;67.19
69184;BME280;56291;53.960;27.550;2023-09-18T03:28:03;99489.47;;;10.50;67.07
69184;BME280;56291;53.960;27.550;2023-09-18T03:30:30;99483.34;;;10.49;67.00
69184;BME280;56291;53.960;27.550;2023-09-18T03:32:56;99489.00;;;10.44;67.08
69184;BME280;56291;53.960;27.550;2023-09-18T03:35:22;99487.09;;;10.47;67.03
69184;BME280;56291;53.960;27.550;2023-09-18T03:37:50;99491.50;;;10.46;66.62
69184;BME280;56291;53.960;27.550;2023-09-18T03:40:17;99489.00;;;10.44;66.89
69184;BME280;56291;53.960;27.550;2023-09-18T03:42:46;99486.78;;;10.40;66.78
69184;BME280;56291;53.960;27.550;2023-09-18T03:45:13;99485.38;;;10.36;67.41
69184;BME280;56291;53.960;27.550;2023-09-18T03:47:40;99489.88;;;10.34;67.79
69184;BME280;56291;53.960;27.550;2023-09-18T03:50:08;99487.25;;;10.34;66.82
69184;BME280;56291;53.960;27.550;2023-09-18T03:52:35;99493.81;;;10.39;67.20
69184;BME280;56291;53.960;27.550;2023-09-18T03:55:01;99490.75;;;10.34;67.07
69184;BME280;56291;53.960;27.550;2023-09-18T03:57:27;99491.00;;;10.31;67.19
69184;BME280;56291;53.960;27.550;2023-09-18T03:59:54;99488.50;;;10.29;67.11
69184;BME280;56291;53.960;27.550;2023-09-18T04:02:23;99487.50;;;10.31;67.33
69184;BME280;56291;53.960;27.550;2023-09-18T04:04:49;99492.91;;;10.29;67.07
69184;BME280;56291;53.960;27.550;2023-09-18T04:07:15;99488.50;;;10.29;67.25
69184;BME280;56291;53.960;27.550;2023-09-18T04:09:42;99490.00;;;10.32;67.40
69184;BME280;56291;53.960;27.550;2023-09-18T04:12:09;99491.22;;;10.28;67.67
69184;BME280;56291;53.960;27.550;2023-09-18T04:14:35;99491.13;;;10.29;67.36
69184;BME280;56291;53.960;27.550;2023-09-18T04:17:02;99485.59;;;10.33;67.70
69184;BME280;56291;53.960;27.550;2023-09-18T04:19:28;99491.13;;;10.29;67.22
69184;BME280;56291;53.960;27.550;2023-09-18T04:21:55;99477.25;;;10.27;67.15
69184;BME280;56291;53.960;27.550;2023-09-18T04:24:22;99482.78;;;10.24;67.24
69184;BME280;56291;53.960;27.550;2023-09-18T04:26:48;99485.81;;;10.20;66.83
69184;BME280;56291;53.960;27.550;2023-09-18T04:29:18;99490.22;;;10.19;67.06
69184;BME280;56291;53.960;27.550;2023-09-18T04:31:45;99497.16;;;10.20;67.25
69184;BME280;56291;53.960;27.550;2023-09-18T04:34:11;99495.22;;;10.22;68.02
69184;BME280;56291;53.960;27.550;2023-09-18T04:36:39;99489.81;;;10.24;67.42
69184;BME280;56291;53.960;27.550;2023-09-18T04:39:05;99499.91;;;10.19;67.71
69184;BME280;56291;53.960;27.550;2023-09-18T04:41:32;99493.38;;;10.13;68.25
69184;BME280;56291;53.960;27.550;2023-09-18T04:43:59;99495.88;;;10.15;68.33
69184;BME280;56291;53.960;27.550;2023-09-18T04:46:25;99497.56;;;10.16;68.28
69184;BME280;56291;53.960;27.550;2023-09-18T04:48:52;99488.53;;;10.18;68.81
69184;BME280;56291;53.960;27.550;2023-09-18T04:51:18;99488.31;;;10.21;69.51
69184;BME280;56291;53.960;27.550;2023-09-18T04:53:44;99484.47;;;10.25;70.66
69184;BME280;56291;53.960;27.550;2023-09-18T04:56:10;99481.31;;;10.32;71.70
69184;BME280;56291;53.960;27.550;2023-09-18T04:58:37;99482.59;;;10.37;70.51
69184;BME280;56291;53.960;27.550;2023-09-18T05:01:05;99481.25;;;10.43;71.82
69184;BME280;56291;53.960;27.550;2023-09-18T05:03:33;99479.06;;;10.48;71.77
69184;BME280;56291;53.960;27.550;2023-09-18T05:06:00;99489.91;;;10.55;72.70
69184;BME280;56291;53.960;27.550;2023-09-18T05:08:26;99491.03;;;10.62;72.74
69184;BME280;56291;53.960;27.550;2023-09-18T05:10:52;99483.44;;;10.69;73.11
69184;BME280;56291;53.960;27.550;2023-09-18T05:13:19;99480.28;;;10.75;72.36
69184;BME280;56291;53.960;27.550;2023-09-18T05:15:45;99478.06;;;10.80;72.33
69184;BME280;56291;53.960;27.550;2023-09-18T05:18:11;99475.06;;;10.85;71.29
69184;BME280;56291;53.960;27.550;2023-09-18T05:20:37;99480.22;;;10.96;72.88
69184;BME280;56291;53.960;27.550;2023-09-18T05:23:03;99473.56;;;11.02;73.72
69184;BME280;56291;53.960;27.550;2023-09-18T05:25:30;99470.53;;;11.06;72.36
69184;BME280;56291;53.960;27.550;2023-09-18T05:27:58;99469.88;;;11.14;71.95
69184;BME280;56291;53.960;27.550;2023-09-18T05:30:44;99469.31;;;11.20;72.20
69184;BME280;56291;53.960;27.550;2023-09-18T05:33:10;99463.53;;;11.26;72.26
69184;BME280;56291;53.960;27.550;2023-09-18T05:35:44;99458.78;;;11.30;72.69
69184;BME280;56291;53.960;27.550;2023-09-18T05:38:13;99458.50;;;11.33;73.01
69184;BME280;56291;53.960;27.550;2023-09-18T05:40:40;99465.16;;;11.37;72.07
69184;BME280;56291;53.960;27.550;2023-09-18T05:43:07;99460.34;;;11.42;72.87
69184;BME280;56291;53.960;27.550;2023-09-18T05:45:34;99459.22;;;11.45;72.35
69184;BME280;56291;53.960;27.550;2023-09-18T05:48:00;99451.72;;;11.50;73.36
69184;BME280;56291;53.960;27.550;2023-09-18T05:50:34;99455.75;;;11.54;72.50
69184;BME280;56291;53.960;27.550;2023-09-18T05:53:04;99457.13;;;11.58;72.86
69184;BME280;56291;53.960;27.550;2023-09-18T05:55:31;99447.16;;;11.62;72.79
69184;BME280;56291;53.960;27.550;2023-09-18T05:57:57;99457.56;;;11.63;72.07
69184;BME280;56291;53.960;27.550;2023-09-18T06:00:23;99448.41;;;11.68;72.47
69184;BME280;56291;53.960;27.550;2023-09-18T06:02:50;99450.75;;;11.71;72.77
69184;BME280;56291;53.960;27.550;2023-09-18T06:05:19;99453.66;;;11.77;72.95
69184;BME280;56291;53.960;27.550;2023-09-18T06:07:49;99452.72;;;11.78;71.97
69184;BME280;56291;53.960;27.550;2023-09-18T06:10:18;99447.97;;;11.82;72.64
69184;BME280;56291;53.960;27.550;2023-09-18T06:12:44;99451.44;;;11.92;72.77
69184;BME280;56291;53.960;27.550;2023-09-18T06:15:11;99451.88;;;11.97;72.78
69184;BME280;56291;53.960;27.550;2023-09-18T06:17:43;99442.69;;;12.02;73.36
69184;BME280;56291;53.960;27.550;2023-09-18T06:20:10;99444.06;;;12.06;73.11
69184;BME280;56291;53.960;27.550;2023-09-18T06:22:38;99448.91;;;12.10;72.52
69184;BME280;56291;53.960;27.550;2023-09-18T06:25:06;99448.50;;;12.15;73.23
69184;BME280;56291;53.960;27.550;2023-09-18T06:27:35;99451.78;;;12.27;71.96
69184;BME280;56291;53.960;27.550;2023-09-18T06:30:03;99460.50;;;12.37;72.85
69184;BME280;56291;53.960;27.550;2023-09-18T06:32:29;99455.63;;;12.42;73.00
69184;BME280;56291;53.960;27.550;2023-09-18T06:34:55;99450.63;;;12.49;72.72
69184;BME280;56291;53.960;27.550;2023-09-18T06:37:24;99443.25;;;12.53;72.50
69184;BME280;56291;53.960;27.550;2023-09-18T06:39:50;99455.84;;;12.59;71.91
69184;BME280;56291;53.960;27.550;2023-09-18T06:42:17;99457.91;;;12.65;71.50
69184;BME280;56291;53.960;27.550;2023-09-18T06:44:43;99451.34;;;12.69;71.94
69184;BME280;56291;53.960;27.550;2023-09-18T06:47:09;99457.72;;;12.76;73.13
69184;BME280;56291;53.960;27.550;2023-09-18T06:49:35;99454.81;;;12.79;73.23
69184;BME280;56291;53.960;27.550;2023-09-18T06:52:01;99453.78;;;12.80;71.73
69184;BME280;56291;53.960;27.550;2023-09-18T06:54:27;99455.88;;;12.87;73.06
69184;BME280;56291;53.960;27.550;2023-09-18T06:56:53;99452.94;;;12.90;72.65
69184;BME280;56291;53.960;27.550;2023-09-18T06:59:19;99463.44;;;12.99;72.82
69184;BME280;56291;53.960;27.550;2023-09-18T07:01:46;99462.00;;;13.05;73.63
69184;BME280;56291;53.960;27.550;2023-09-18T07:04:12;99451.16;;;13.08;72.43
69184;BME280;56291;53.960;27.550;2023-09-18T07:06:38;99458.63;;;13.13;72.93
69184;BME280;56291;53.960;27.550;2023-09-18T07:09:04;99457.06;;;13.20;73.60
69184;BME280;56291;53.960;27.550;2023-09-18T07:11:34;99452.00;;;13.27;73.28
69184;BME280;56291;53.960;27.550;2023-09-18T07:14:00;99458.47;;;13.32;73.63
69184;BME280;56291;53.960;27.550;2023-09-18T07:16:28;99461.25;;;13.41;72.91
69184;BME280;56291;53.960;27.550;2023-09-18T07:18:54;99456.50;;;13.44;73.47
69184;BME280;56291;53.960;27.550;2023-09-18T07:21:20;99462.22;;;13.58;74.06
69184;BME280;56291;53.960;27.550;2023-09-18T07:23:46;99466.53;;;13.59;72.83
69184;BME280;56291;53.960;27.550;2023-09-18T07:26:13;99466.75;;;13.65;72.60
69184;BME280;56291;53.960;27.550;2023-09-18T07:28:39;99467.34;;;13.77;72.49
69184;BME280;56291;53.960;27.550;2023-09-18T07:31:08;99462.13;;;13.85;73.26
69184;BME280;56291;53.960;27.550;2023-09-18T07:33:35;99466.88;;;14.00;73.03
69184;BME280;56291;53.960;27.550;2023-09-18T07:36:01;99468.91;;;14.06;72.84
69184;BME280;56291;53.960;27.550;2023-09-18T07:38:28;99463.44;;;14.08;72.72
69184;BME280;56291;53.960;27.550;2023-09-18T07:40:54;99465.34;;;14.15;73.50
69184;BME280;56291;53.960;27.550;2023-09-18T07:43:20;99461.88;;;14.23;73.18
69184;BME280;56291;53.960;27.550;2023-09-18T07:45:46;99462.09;;;14.30;73.18
69184;BME280;56291;53.960;27.550;2023-09-18T07:48:15;99458.16;;;14.34;73.37
69184;BME280;56291;53.960;27.550;2023-09-18T07:50:45;99450.44;;;14.41;72.79
69184;BME280;56291;53.960;27.550;2023-09-18T07:53:12;99449.94;;;14.45;73.70
69184;BME280;56291;53.960;27.550;2023-09-18T07:55:38;99450.59;;;14.47;72.67
69184;BME280;56291;53.960;27.550;2023-09-18T07:58:04;99449.31;;;14.51;72.30
69184;BME280;56291;53.960;27.550;2023-09-18T08:00:31;99438.91;;;14.58;72.15
69184;BME280;56291;53.960;27.550;2023-09-18T08:02:59;99437.16;;;14.67;72.63
69184;BME280;56291;53.960;27.550;2023-09-18T08:05:27;99440.53;;;14.77;73.12
69184;BME280;56291;53.960;27.550;2023-09-18T08:07:54;99441.53;;;14.84;72.30
69184;BME280;56291;53.960;27.550;2023-09-18T08:10:25;99436.59;;;14.98;72.59
69184;BME280;56291;53.960;27.550;2023-09-18T08:12:52;99434.50;;;15.10;72.72
69184;BME280;56291;53.960;27.550;2023-09-18T08:15:21;99438.81;;;15.19;72.23
69184;BME280;56291;53.960;27.550;2023-09-18T08:17:48;99429.88;;;15.28;72.99
69184;BME280;56291;53.960;27.550;2023-09-18T08:20:15;99437.19;;;15.42;73.02
69184;BME280;56291;53.960;27.550;2023-09-18T08:22:43;99435.88;;;15.55;73.23
69184;BME280;56291;53.960;27.550;2023-09-18T08:25:12;99433.06;;;15.73;72.72
69184;BME280;56291;53.960;27.550;2023-09-18T08:27:40;99429.09;;;15.85;72.64
69184;BME280;56291;53.960;27.550;2023-09-18T08:30:14;99429.41;;;16.07;72.18
69184;BME280;56291;53.960;27.550;2023-09-18T08:32:41;99425.72;;;16.24;72.42
69184;BME280;56291;53.960;27.550;2023-09-18T08:35:08;99416.22;;;16.38;71.92
69184;BME280;56291;53.960;27.550;2023-09-18T08:37:35;99427.44;;;16.57;71.79
69184;BME280;56291;53.960;27.550;2023-09-18T08:40:01;99426.34;;;16.74;71.93
69184;BME280;56291;53.960;27.550;2023-09-18T08:42:37;99430.59;;;17.00;71.54
69184;BME280;56291;53.960;27.550;2023-09-18T08:45:08;99428.13;;;17.22;70.81
69184;BME280;56291;53.960;27.550;2023-09-18T08:47:37;99430.97;;;17.43;70.83
69184;BME280;56291;53.960;27.550;2023-09-18T08:50:05;99422.22;;;17.58;70.10
69184;BME280;56291;53.960;27.550;2023-09-18T08:52:34;99428.22;;;17.75;70.42
69184;BME280;56291;53.960;27.550;2023-09-18T08:55:01;99422.91;;;17.90;70.63
69184;BME280;56291;53.960;27.550;2023-09-18T08:57:28;99425.94;;;18.10;70.97
69184;BME280;56291;53.960;27.550;2023-09-18T08:59:56;99428.31;;;18.35;70.90
69184;BME280;56291;53.960;27.550;2023-09-18T09:02:24;99432.75;;;18.57;70.83
69184;BME280;56291;53.960;27.550;2023-09-18T09:04:50;99428.47;;;18.78;70.81
69184;BME280;56291;53.960;27.550;2023-09-18T09:07:16;99430.78;;;18.96;70.09
69184;BME280;56291;53.960;27.550;2023-09-18T09:09:42;99432.63;;;19.17;68.72
69184;BME280;56291;53.960;27.550;2023-09-18T09:12:09;99426.28;;;19.40;67.47
69184;BME280;56291;53.960;27.550;2023-09-18T09:14:35;99412.44;;;19.51;66.97
69184;BME280;56291;53.960;27.550;2023-09-18T09:17:01;99420.84;;;19.69;67.30
69184;BME280;56291;53.960;27.550;2023-09-18T09:19:35;99425.69;;;19.88;68.77
69184;BME280;56291;53.960;27.550;2023-09-18T09:22:20;99424.22;;;20.07;67.26
69184;BME280;56291;53.960;27.550;2023-09-18T09:24:48;99418.00;;;20.34;67.12
69184;BME280;56291;53.960;27.550;2023-09-18T09:27:15;99410.31;;;20.60;64.76
69184;BME280;56291;53.960;27.550;2023-09-18T09:29:57;99417.84;;;20.78;64.73
69184;BME280;56291;53.960;27.550;2023-09-18T09:32:23;99415.00;;;20.93;65.88
69184;BME280;56291;53.960;27.550;2023-09-18T09:34:50;99412.38;;;21.13;66.46
69184;BME280;56291;53.960;27.550;2023-09-18T09:37:29;99400.91;;;21.32;65.98
69184;BME280;56291;53.960;27.550;2023-09-18T09:39:57;99408.75;;;21.54;66.16
69184;BME280;56291;53.960;27.550;2023-09-18T09:42:39;99409.97;;;21.78;64.17
69184;BME280;56291;53.960;27.550;2023-09-18T09:45:11;99406.69;;;21.96;66.43
69184;BME280;56291;53.960;27.550;2023-09-18T09:47:38;99416.75;;;22.14;65.31
69184;BME280;56291;53.960;27.550;2023-09-18T09:50:12;99413.44;;;22.25;65.10
69184;BME280;56291;53.960;27.550;2023-09-18T09:52:53;99411.56;;;22.46;65.19
69184;BME280;56291;53.960;27.550;2023-09-18T09:58:00;99407.97;;;22.72;60.59
69184;BME280;56291;53.960;27.550;2023-09-18T10:00:38;99401.69;;;22.85;60.24
69184;BME280;56291;53.960;27.550;2023-09-18T10:03:20;99403.75;;;22.83;60.62
69184;BME280;56291;53.960;27.550;2023-09-18T10:05:52;99399.91;;;23.11;60.12
69184;BME280;56291;53.960;27.550;2023-09-18T10:08:25;99394.91;;;23.21;61.56
69184;BME280;56291;53.960;27.550;2023-09-18T10:10:54;99391.72;;;23.31;61.35
69184;BME280;56291;53.960;27.550;2023-09-18T10:15:54;99387.50;;;23.49;59.40
69184;BME280;56291;53.960;27.550;2023-09-18T10:20:53;99384.69;;;23.87;62.61
69184;BME280;56291;53.960;27.550;2023-09-18T10:23:57;99373.44;;;23.97;59.13
69184;BME280;56291;53.960;27.550;2023-09-18T10:26:23;99376.44;;;24.07;57.24
69184;BME280;56291;53.960;27.550;2023-09-18T10:28:56;99376.16;;;24.16;56.39
69184;BME280;56291;53.960;27.550;2023-09-18T10:31:29;99373.81;;;24.19;55.97
69184;BME280;56291;53.960;27.550;2023-09-18T10:33:59;99378.22;;;24.32;56.24
69184;BME280;56291;53.960;27.550;2023-09-18T10:36:27;99374.19;;;24.41;58.77
69184;BME280;56291;53.960;27.550;2023-09-18T10:42:01;99368.28;;;24.70;56.08
69184;BME280;56291;53.960;27.550;2023-09-18T10:44:28;99369.25;;;24.75;54.93
69184;BME280;56291;53.960;27.550;2023-09-18T10:46:56;99364.81;;;24.81;56.75
69184;BME280;56291;53.960;27.550;2023-09-18T10:49:22;99365.38;;;25.02;58.47
69184;BME280;56291;53.960;27.550;2023-09-18T10:51:49;99359.31;;;25.18;53.49
69184;BME280;56291;53.960;27.550;2023-09-18T10:54:23;99356.81;;;25.35;56.37
69184;BME280;56291;53.960;27.550;2023-09-18T10:56:51;99353.38;;;25.28;52.21
69184;BME280;56291;53.960;27.550;2023-09-18T10:59:17;99345.75;;;25.25;52.94
69184;BME280;56291;53.960;27.550;2023-09-18T11:01:44;99355.09;;;25.64;54.35
69184;BME280;56291;53.960;27.550;2023-09-18T11:04:12;99351.09;;;25.67;53.56
69184;BME280;56291;53.960;27.550;2023-09-18T11:09:23;99341.94;;;25.92;52.75
69184;BME280;56291;53.960;27.550;2023-09-18T11:17:30;99331.09;;;26.39;52.08
69184;BME280;56291;53.960;27.550;2023-09-18T11:20:07;99342.31;;;26.48;51.19
69184;BME280;56291;53.960;27.550;2023-09-18T11:25:47;99344.47;;;26.75;50.14
69184;BME280;56291;53.960;27.550;2023-09-18T11:28:22;99351.78;;;26.91;53.10
69184;BME280;56291;53.960;27.550;2023-09-18T11:30:54;99334.19;;;27.06;47.72
69184;BME280;56291;53.960;27.550;2023-09-18T11:33:50;99336.66;;;27.07;49.92
69184;BME280;56291;53.960;27.550;2023-09-18T11:38:56;99329.16;;;27.43;49.12
69184;BME280;56291;53.960;27.550;2023-09-18T11:41:27;99322.84;;;27.55;48.42
69184;BME280;56291;53.960;27.550;2023-09-18T11:46:55;99324.06;;;27.64;48.34
69184;BME280;56291;53.960;27.550;2023-09-18T11:49:23;99326.38;;;27.72;49.38
69184;BME280;56291;53.960;27.550;2023-09-18T11:51:52;99317.78;;;27.97;47.74
69184;BME280;56291;53.960;27.550;2023-09-18T11:54:19;99321.13;;;28.05;48.32
69184;BME280;56291;53.960;27.550;2023-09-18T11:56:47;99323.44;;;28.18;47.60
69184;BME280;56291;53.960;27.550;2023-09-18T11:59:13;99318.47;;;28.32;47.48
69184;BME280;56291;53.960;27.550;2023-09-18T12:01:40;99317.53;;;28.43;49.46
69184;BME280;56291;53.960;27.550;2023-09-18T12:04:06;99314.34;;;28.46;47.74
69184;BME280;56291;53.960;27.550;2023-09-18T12:06:36;99313.44;;;28.63;48.52
69184;BME280;56291;53.960;27.550;2023-09-18T12:09:03;99315.94;;;28.69;48.77
69184;BME280;56291;53.960;27.550;2023-09-18T12:11:30;99310.53;;;28.69;46.33
69184;BME280;56291;53.960;27.550;2023-09-18T12:13:56;99306.56;;;28.77;47.48
69184;BME280;56291;53.960;27.550;2023-09-18T12:16:24;99311.00;;;28.94;47.83
69184;BME280;56291;53.960;27.550;2023-09-18T12:18:50;99306.34;;;29.16;48.37
69184;BME280;56291;53.960;27.550;2023-09-18T12:21:17;99303.38;;;29.18;48.30
69184;BME280;56291;53.960;27.550;2023-09-18T12:23:45;99307.69;;;29.14;46.93
69184;BME280;56291;53.960;27.550;2023-09-18T12:26:13;99309.53;;;29.08;46.55
69184;BME280;56291;53.960;27.550;2023-09-18T12:28:43;99302.59;;;29.22;47.80
69184;BME280;56291;53.960;27.550;2023-09-18T12:31:13;99298.13;;;29.38;47.63
69184;BME280;56291;53.960;27.550;2023-09-18T12:33:42;99290.09;;;29.54;47.58
69184;BME280;56291;53.960;27.550;2023-09-18T12:36:10;99300.16;;;29.59;47.38
69184;BME280;56291;53.960;27.550;2023-09-18T12:38:37;99285.72;;;29.48;46.52
69184;BME280;56291;53.960;27.550;2023-09-18T12:41:05;99290.16;;;29.64;47.98
69184;BME280;56291;53.960;27.550;2023-09-18T12:43:40;99292.53;;;29.55;45.65
69184;BME280;56291;53.960;27.550;2023-09-18T12:46:10;99292.47;;;29.45;46.91
69184;BME280;56291;53.960;27.550;2023-09-18T12:48:39;99295.50;;;29.54;46.13
69184;BME280;56291;53.960;27.550;2023-09-18T12:51:11;99289.50;;;29.47;44.57
69184;BME280;56291;53.960;27.550;2023-09-18T12:53:38;99285.41;;;29.07;41.94
69184;BME280;56291;53.960;27.550;2023-09-18T12:56:12;99281.81;;;29.28;45.27
69184;BME280;56291;53.960;27.550;2023-09-18T12:58:39;99291.03;;;29.32;45.74
69184;BME280;56291;53.960;27.550;2023-09-18T13:01:12;99276.38;;;29.28;44.43
69184;BME280;56291;53.960;27.550;2023-09-18T13:03:45;99278.22;;;29.22;44.40
69184;BME280;56291;53.960;27.550;2023-09-18T13:06:19;99278.09;;;29.07;44.35
69184;BME280;56291;53.960;27.550;2023-09-18T13:08:46;99276.72;;;29.04;43.86
69184;BME280;56291;53.960;27.550;2023-09-18T13:11:13;99274.78;;;29.00;43.58
69184;BME280;56291;53.960;27.550;2023-09-18T13:13:42;99277.66;;;28.88;43.95
69184;BME280;56291;53.960;27.550;2023-09-18T13:16:10;99278.03;;;28.69;43.19
69184;BME280;56291;53.960;27.550;2023-09-18T13:18:37;99267.09;;;28.59;42.95
69184;BME280;56291;53.960;27.550;2023-09-18T13:21:12;99268.34;;;28.46;43.56
69184;BME280;56291;53.960;27.550;2023-09-18T13:23:39;99269.22;;;28.30;42.23
69184;BME280;56291;53.960;27.550;2023-09-18T13:26:15;99267.53;;;28.24;42.61
69184;BME280;56291;53.960;27.550;2023-09-18T13:28:41;99266.34;;;28.14;42.54
69184;BME280;56291;53.960;27.550;2023-09-18T13:31:08;99259.44;;;28.01;42.86
69184;BME280;56291;53.960;27.550;2023-09-18T13:33:41;99249.75;;;27.83;42.35
69184;BME280;56291;53.960;27.550;2023-09-18T13:36:10;99248.69;;;27.84;42.96
69184;BME280;56291;53.960;27.550;2023-09-18T13:38:36;99251.81;;;27.76;42.47
69184;BME280;56291;53.960;27.550;2023-09-18T13:41:03;99255.13;;;27.61;42.57
69184;BME280;56291;53.960;27.550;2023-09-18T13:43:31;99251.91;;;27.64;44.38
69184;BME280;56291;53.960;27.550;2023-09-18T13:46:00;99255.97;;;27.45;43.13
69184;BME280;56291;53.960;27.550;2023-09-18T13:48:53;99255.47;;;27.31;43.35
69184;BME280;56291;53.960;27.550;2023-09-18T13:51:19;99258.09;;;27.26;43.54
69184;BME280;56291;53.960;27.550;2023-09-18T13:53:45;99249.38;;;27.18;44.51
69184;BME280;56291;53.960;27.550;2023-09-18T13:56:14;99247.72;;;27.17;43.62
69184;BME280;56291;53.960;27.550;2023-09-18T13:58:40;99244.78;;;27.02;44.72
69184;BME280;56291;53.960;27.550;2023-09-18T14:01:07;99245.50;;;26.97;44.29
69184;BME280;56291;53.960;27.550;2023-09-18T14:03:34;99241.25;;;26.84;44.42
69184;BME280;56291;53.960;27.550;2023-09-18T14:06:00;99244.69;;;26.80;45.56
69184;BME280;56291;53.960;27.550;2023-09-18T14:08:26;99246.59;;;26.79;44.81
69184;BME280;56291;53.960;27.550;2023-09-18T14:10:52;99244.34;;;26.76;45.48
69184;BME280;56291;53.960;27.550;2023-09-18T14:13:18;99242.97;;;26.74;45.27
69184;BME280;56291;53.960;27.550;2023-09-18T14:15:47;99238.38;;;26.74;45.60
69184;BME280;56291;53.960;27.550;2023-09-18T14:18:14;99240.56;;;26.60;45.46
69184;BME280;56291;53.960;27.550;2023-09-18T14:20:40;99237.34;;;26.63;46.22
69184;BME280;56291;53.960;27.550;2023-09-18T14:23:07;99239.69;;;26.72;46.02
69184;BME280;56291;53.960;27.550;2023-09-18T14:25:33;99236.66;;;26.68;46.27
69184;BME280;56291;53.960;27.550;2023-09-18T14:27:59;99237.34;;;26.63;46.48
69184;BME280;56291;53.960;27.550;2023-09-18T14:30:26;99232.41;;;26.72;46.74
69184;BME280;56291;53.960;27.550;2023-09-18T14:32:57;99229.97;;;26.88;46.24
69184;BME280;56291;53.960;27.550;2023-09-18T14:35:23;99223.59;;;26.77;46.52
69184;BME280;56291;53.960;27.550;2023-09-18T14:37:49;99221.16;;;26.92;46.15
69184;BME280;56291;53.960;27.550;2023-09-18T14:40:16;99222.94;;;27.04;46.10
69184;BME280;56291;53.960;27.550;2023-09-18T14:42:49;99223.25;;;27.07;45.79
69184;BME280;56291;53.960;27.550;2023-09-18T14:45:15;99224.63;;;27.10;44.98
69184;BME280;56291;53.960;27.550;2023-09-18T14:47:42;99224.38;;;27.11;45.83
69184;BME280;56291;53.960;27.550;2023-09-18T14:50:08;99226.13;;;27.17;45.20
69184;BME280;56291;53.960;27.550;2023-09-18T14:52:34;99222.91;;;27.21;45.54
69184;BME280;56291;53.960;27.550;2023-09-18T14:55:00;99221.78;;;27.16;45.30
69184;BME280;56291;53.960;27.550;2023-09-18T14:57:27;99218.00;;;27.17;44.73
69184;BME280;56291;53.960;27.550;2023-09-18T14:59:53;99211.22;;;27.15;44.97
69184;BME280;56291;53.960;27.550;2023-09-18T15:02:19;99213.19;;;27.02;45.53
69184;BME280;56291;53.960;27.550;2023-09-18T15:04:46;99210.50;;;26.86;46.09
69184;BME280;56291;53.960;27.550;2023-09-18T15:07:13;99209.03;;;26.95;45.48
69184;BME280;56291;53.960;27.550;2023-09-18T15:09:40;99203.31;;;26.91;44.93
69184;BME280;56291;53.960;27.550;2023-09-18T15:12:07;99208.06;;;26.84;45.24
69184;BME280;56291;53.960;27.550;2023-09-18T15:14:34;99204.69;;;26.77;45.91
69184;BME280;56291;53.960;27.550;2023-09-18T15:17:01;99201.63;;;26.56;46.15
69184;BME280;56291;53.960;27.550;2023-09-18T15:19:27;99202.38;;;26.52;46.06
69184;BME280;56291;53.960;27.550;2023-09-18T15:21:54;99205.47;;;26.43;45.96
69184;BME280;56291;53.960;27.550;2023-09-18T15:24:23;99194.06;;;26.41;46.26